createdAt,value
2022-09-11T00:01:19.302Z,57.67
2022-09-11T00:03:47.097Z,56.90
2022-09-11T00:06:28.486Z,54.80
2022-09-11T00:09:00.370Z,58.05
2022-09-11T00:11:33.794Z,58.03
2022-09-11T00:14:00.472Z,62.78
2022-09-11T00:16:30.803Z,57.40
2022-09-11T00:18:59.723Z,57.10
2022-09-11T00:21:27.590Z,61.35
2022-09-11T00:23:54.241Z,60.47
2022-09-11T00:26:21.529Z,58.22
2022-09-11T00:28:50.587Z,58.75
2022-09-11T00:31:20.063Z,58.25
2022-09-11T00:33:46.747Z,59.28
2022-09-11T00:36:16.147Z,58.53
2022-09-11T00:38:42.995Z,59.40
2022-09-11T00:41:15.230Z,59.88
2022-09-11T00:44:07.349Z,62.60
2022-09-11T00:46:44.267Z,60.38
2022-09-11T00:49:40.090Z,60.83
2022-09-11T00:52:27.327Z,60.25
2022-09-11T00:55:07.582Z,58.17
2022-09-11T00:57:40.716Z,58.55
2022-09-11T01:00:08.635Z,62.63
2022-09-11T01:02:37.166Z,59.38
2022-09-11T01:05:04.455Z,59.83
2022-09-11T01:07:32.681Z,59.22
2022-09-11T01:09:59.938Z,59.67
2022-09-11T01:13:05.881Z,63.33
2022-09-11T01:15:53.814Z,61.38
2022-09-11T01:18:29.737Z,62.30
2022-09-11T01:21:08.559Z,62.20
2022-09-11T01:24:00.315Z,59.65
2022-09-11T01:26:56.033Z,60.63
2022-09-11T01:29:44.028Z,59.33
2022-09-11T01:32:21.157Z,61.70
2022-09-11T01:35:09.394Z,62.13
2022-09-11T01:38:05.426Z,61.95
2022-09-11T01:40:55.894Z,61.20
2022-09-11T01:43:27.124Z,64.07
2022-09-11T01:45:58.326Z,61.67
2022-09-11T01:48:37.127Z,62.50
2022-09-11T01:51:04.532Z,63.33
2022-09-11T01:53:37.501Z,64.82
2022-09-11T01:56:13.435Z,66.47
2022-09-11T01:58:42.100Z,64.55
2022-09-11T02:01:17.006Z,62.70
2022-09-11T02:06:18.123Z,65.03
2022-09-11T02:08:53.093Z,64.75
2022-09-11T02:11:23.339Z,65.18
2022-09-11T02:13:50.047Z,69.60
2022-09-11T02:16:20.092Z,71.93
2022-09-11T02:18:58.562Z,65.28
2022-09-11T02:21:26.006Z,66.40
2022-09-11T02:23:52.575Z,67.97
2022-09-11T02:26:21.211Z,67.18
2022-09-11T02:28:47.874Z,69.03
2022-09-11T02:31:14.801Z,72.05
2022-09-11T02:33:42.051Z,74.85
2022-09-11T02:36:31.314Z,70.95
2022-09-11T02:39:06.309Z,74.72
2022-09-11T02:41:51.938Z,73.80
2022-09-11T02:44:37.886Z,72.45
2022-09-11T02:47:20.298Z,76.43
2022-09-11T02:50:02.314Z,76.20
2022-09-11T02:52:47.717Z,74.60
2022-09-11T02:55:25.378Z,81.55
2022-09-11T02:58:02.629Z,72.05
2022-09-11T03:00:31.232Z,68.22
2022-09-11T03:02:59.196Z,68.13
2022-09-11T03:05:25.926Z,75.43
2022-09-11T03:07:52.526Z,70.72
2022-09-11T03:10:20.262Z,69.53
2022-09-11T03:12:46.813Z,74.22
2022-09-11T03:15:13.463Z,79.80
2022-09-11T03:17:44.412Z,70.47
2022-09-11T03:20:11.051Z,68.93
2022-09-11T03:22:37.646Z,73.60
2022-09-11T03:25:04.584Z,68.93
2022-09-11T03:27:31.605Z,68.60
2022-09-11T03:29:59.222Z,66.53
2022-09-11T03:32:28.587Z,67.88
2022-09-11T03:34:57.434Z,68.43
2022-09-11T03:37:24.168Z,71.60
2022-09-11T03:39:50.790Z,69.82
2022-09-11T03:42:17.503Z,68.53
2022-09-11T03:44:45.652Z,73.13
2022-09-11T03:47:12.793Z,66.05
2022-09-11T03:49:39.884Z,69.30
2022-09-11T03:52:06.585Z,71.35
2022-09-11T03:54:34.437Z,70.43
2022-09-11T03:57:01.584Z,65.93
2022-09-11T03:59:29.212Z,69.82
2022-09-11T04:01:55.846Z,72.50
2022-09-11T04:04:23.641Z,72.72
2022-09-11T04:06:50.598Z,70.13
2022-09-11T04:09:18.552Z,76.53
2022-09-11T04:11:47.173Z,69.90
2022-09-11T04:14:22.529Z,71.15
2022-09-11T04:16:50.058Z,73.10
2022-09-11T04:19:18.867Z,68.50
2022-09-11T04:21:45.467Z,73.93
2022-09-11T04:24:12.619Z,72.97
2022-09-11T04:26:39.252Z,75.03
2022-09-11T04:29:12.290Z,70.33
2022-09-11T04:31:39.974Z,70.28
2022-09-11T04:34:07.163Z,72.30
2022-09-11T04:36:36.267Z,73.80
2022-09-11T04:39:03.663Z,70.82
2022-09-11T04:41:30.970Z,68.63
2022-09-11T04:44:04.720Z,67.63
2022-09-11T04:46:34.480Z,74.28
2022-09-11T04:49:04.880Z,72.85
2022-09-11T04:51:34.847Z,74.68
2022-09-11T04:54:03.136Z,77.78
2022-09-11T04:56:37.913Z,71.35
2022-09-11T04:59:06.669Z,73.85
2022-09-11T05:01:35.804Z,72.10
2022-09-11T05:04:03.208Z,72.15
2022-09-11T05:06:30.468Z,66.82
2022-09-11T05:09:05.387Z,66.03
2022-09-11T05:11:35.021Z,68.85
2022-09-11T05:14:01.832Z,67.40
2022-09-11T05:16:31.277Z,72.95
2022-09-11T05:18:58.879Z,71.00
2022-09-11T05:21:27.143Z,68.28
2022-09-11T05:23:55.849Z,68.85
2022-09-11T05:26:24.749Z,69.25
2022-09-11T05:28:59.741Z,67.55
2022-09-11T05:31:27.387Z,64.95
2022-09-11T05:33:59.097Z,74.18
2022-09-11T05:36:27.724Z,72.22
2022-09-11T05:38:54.341Z,69.85
2022-09-11T05:41:21.265Z,71.32
2022-09-11T05:43:48.305Z,68.95
2022-09-11T05:46:16.986Z,66.28
2022-09-11T05:48:47.226Z,66.18
2022-09-11T05:51:16.729Z,61.65
2022-09-11T05:53:44.488Z,64.45
2022-09-11T05:56:19.701Z,66.90
2022-09-11T05:58:48.471Z,65.75
2022-09-11T06:01:18.746Z,66.93
2022-09-11T06:03:50.782Z,68.72
2022-09-11T06:06:22.397Z,66.20
2022-09-11T06:08:50.219Z,66.93
2022-09-11T06:11:18.780Z,66.82
2022-09-11T06:13:47.140Z,64.80
2022-09-11T06:16:18.530Z,63.22
2022-09-11T06:18:49.425Z,68.53
2022-09-11T06:21:20.727Z,63.45
2022-09-11T06:23:54.387Z,64.00
2022-09-11T06:26:24.093Z,63.15
2022-09-11T06:28:51.518Z,69.90
2022-09-11T06:31:20.764Z,67.85
2022-09-11T06:33:47.729Z,60.38
2022-09-11T06:36:19.603Z,65.55
2022-09-11T06:38:47.343Z,62.15
2022-09-11T06:41:16.986Z,65.90
2022-09-11T06:43:44.602Z,58.40
2022-09-11T06:46:17.714Z,63.67
2022-09-11T06:48:46.170Z,61.55
2022-09-11T06:51:17.587Z,62.55
2022-09-11T06:53:45.011Z,58.17
2022-09-11T06:56:14.537Z,58.75
2022-09-11T06:58:43.979Z,59.20
2022-09-11T07:01:16.371Z,55.78
2022-09-11T07:03:47.183Z,55.40
2022-09-11T07:06:18.142Z,55.08
2022-09-11T07:08:54.790Z,52.45
2022-09-11T07:11:21.635Z,51.70
2022-09-11T07:13:48.468Z,54.05
2022-09-11T07:16:16.663Z,53.75
2022-09-11T07:18:48.263Z,54.10
2022-09-11T07:21:22.460Z,57.50
2022-09-11T07:23:54.928Z,52.92
2022-09-11T07:26:23.342Z,57.15
2022-09-11T07:28:54.766Z,56.47
2022-09-11T07:31:29.199Z,54.20
2022-09-11T07:33:57.010Z,53.95
2022-09-11T07:36:27.644Z,53.38
2022-09-11T07:38:55.210Z,55.75
2022-09-11T07:41:25.034Z,52.65
2022-09-11T07:43:56.901Z,50.42
2022-09-11T07:46:26.923Z,52.80
2022-09-11T07:48:58.658Z,49.75
2022-09-11T07:51:26.890Z,54.20
2022-09-11T07:53:56.656Z,54.17
2022-09-11T07:56:25.696Z,51.15
2022-09-11T07:58:55.099Z,50.95
2022-09-11T08:01:24.864Z,52.38
2022-09-11T08:04:06.661Z,52.20
2022-09-11T08:06:36.821Z,48.75
2022-09-11T08:09:09.354Z,48.60
2022-09-11T08:11:43.035Z,47.47
2022-09-11T08:14:11.776Z,46.17
2022-09-11T08:16:38.926Z,46.80
2022-09-11T08:19:06.938Z,45.25
2022-09-11T08:21:34.795Z,45.42
2022-09-11T08:24:03.850Z,46.00
2022-09-11T08:26:31.282Z,46.55
2022-09-11T08:29:00.148Z,45.03
2022-09-11T08:31:30.260Z,46.58
2022-09-11T08:33:58.934Z,46.35
2022-09-11T08:36:27.069Z,46.05
2022-09-11T08:38:53.719Z,42.83
2022-09-11T08:41:29.156Z,44.85
2022-09-11T08:44:02.030Z,44.15
2022-09-11T08:46:37.909Z,43.58
2022-09-11T08:49:10.432Z,43.92
2022-09-11T08:51:37.754Z,45.53
2022-09-11T08:54:05.210Z,46.33
2022-09-11T08:56:37.942Z,42.75
2022-09-11T08:59:24.395Z,39.08
2022-09-11T09:02:03.155Z,39.08
2022-09-11T09:04:54.821Z,40.78
2022-09-11T09:07:37.712Z,38.65
2022-09-11T09:10:15.348Z,40.70
2022-09-11T09:12:53.275Z,39.30
2022-09-11T09:15:41.300Z,40.80
2022-09-11T09:18:19.180Z,41.47
2022-09-11T09:21:01.102Z,40.95
2022-09-11T09:23:35.599Z,40.40
2022-09-11T09:26:02.155Z,39.20
2022-09-11T09:28:40.698Z,39.83
2022-09-11T09:31:10.408Z,41.35
2022-09-11T09:33:48.721Z,41.35
2022-09-11T09:36:22.452Z,39.38
2022-09-11T09:38:49.491Z,39.63
2022-09-11T09:41:41.496Z,40.15
2022-09-11T09:44:37.420Z,39.75
2022-09-11T09:47:05.033Z,40.88
2022-09-11T09:49:34.542Z,41.45
2022-09-11T09:52:12.180Z,39.20
2022-09-11T09:54:39.789Z,38.50
2022-09-11T09:57:10.418Z,40.60
2022-09-11T09:59:55.246Z,38.13
2022-09-11T10:02:55.247Z,36.22
2022-09-11T10:05:28.997Z,35.65
2022-09-11T10:08:06.718Z,33.83
2022-09-11T10:10:38.834Z,36.05
2022-09-11T10:13:19.610Z,33.55
2022-09-11T10:15:49.434Z,33.35
2022-09-11T10:18:35.984Z,32.25
2022-09-11T10:21:11.728Z,31.73
2022-09-11T10:23:50.702Z,31.20
2022-09-11T10:26:45.970Z,30.83
2022-09-11T10:29:24.338Z,33.10
2022-09-11T10:31:53.437Z,31.95
2022-09-11T10:34:22.419Z,28.48
2022-09-11T10:36:56.865Z,27.92
2022-09-11T10:39:26.373Z,27.33
2022-09-11T10:41:59.405Z,26.63
2022-09-11T10:44:27.851Z,25.00
2022-09-11T10:47:06.482Z,24.02
2022-09-11T10:49:34.293Z,24.52
2022-09-11T10:52:06.856Z,24.52
2022-09-11T10:54:48.184Z,24.15
2022-09-11T10:57:36.351Z,25.63
2022-09-11T11:00:27.555Z,22.73
2022-09-11T11:03:05.349Z,19.90
2022-09-11T11:05:39.622Z,19.20
2022-09-11T11:08:50.967Z,17.63
2022-09-11T11:11:32.488Z,21.58
2022-09-11T11:14:02.013Z,21.10
2022-09-11T11:16:40.855Z,20.80
2022-09-11T11:19:13.657Z,19.67
2022-09-11T11:22:17.941Z,21.35
2022-09-11T11:25:06.757Z,21.63
2022-09-11T11:28:00.699Z,22.38
2022-09-11T11:30:50.589Z,23.50
2022-09-11T11:33:37.889Z,23.38
2022-09-11T11:36:12.187Z,24.02
2022-09-11T11:38:52.906Z,20.75
2022-09-11T11:41:23.721Z,21.35
2022-09-11T11:43:55.599Z,20.30
2022-09-11T11:46:30.358Z,21.67
2022-09-11T11:49:04.570Z,21.73
2022-09-11T11:51:39.417Z,20.77
2022-09-11T11:54:29.175Z,20.63
2022-09-11T11:57:24.085Z,18.88
2022-09-11T11:59:57.332Z,22.00
2022-09-11T12:02:49.615Z,20.90
2022-09-11T12:05:20.310Z,19.50
2022-09-11T12:07:47.421Z,18.20
2022-09-11T12:10:25.570Z,18.77
2022-09-11T12:12:59.932Z,17.50
2022-09-11T12:15:32.275Z,16.70
2022-09-11T12:18:02.087Z,18.45
2022-09-11T12:20:39.154Z,18.30
2022-09-11T12:23:08.562Z,18.35
2022-09-11T12:25:38.123Z,18.15
2022-09-11T12:28:22.002Z,18.83
2022-09-11T12:31:05.289Z,19.50
2022-09-11T12:33:41.025Z,15.50
2022-09-11T12:36:09.733Z,16.42
2022-09-11T12:38:44.943Z,17.73
2022-09-11T12:41:31.486Z,16.60
2022-09-11T12:43:58.263Z,16.00
2022-09-11T12:46:28.093Z,15.27
2022-09-11T12:49:20.328Z,18.10
2022-09-11T12:51:52.878Z,17.38
2022-09-11T12:54:31.514Z,17.38
2022-09-11T12:57:05.361Z,17.08
2022-09-11T12:59:39.171Z,16.35
2022-09-11T13:02:25.999Z,16.10
2022-09-11T13:04:54.911Z,16.50
2022-09-11T13:07:39.757Z,15.98
2022-09-11T13:10:09.162Z,14.77
2022-09-11T13:12:49.228Z,15.68
2022-09-11T13:15:39.416Z,15.85
2022-09-11T13:18:31.098Z,16.23
2022-09-11T13:21:26.343Z,14.45
2022-09-11T13:23:53.598Z,14.93
2022-09-11T13:26:25.547Z,14.75
2022-09-11T13:28:55.087Z,12.98
2022-09-11T13:31:33.662Z,12.75
2022-09-11T13:34:03.601Z,15.45
2022-09-11T13:36:31.464Z,15.02
2022-09-11T13:39:01.672Z,13.57
2022-09-11T13:41:37.525Z,15.90
2022-09-11T13:44:11.538Z,16.58
2022-09-11T13:46:50.956Z,15.32
2022-09-11T13:49:17.429Z,16.10
2022-09-11T13:51:46.942Z,14.90
2022-09-11T13:54:38.276Z,15.23
2022-09-11T13:57:12.630Z,13.57
2022-09-11T13:59:57.087Z,14.98
2022-09-11T14:02:38.056Z,14.38
2022-09-11T14:05:13.854Z,15.07
2022-09-11T14:08:01.980Z,15.82
2022-09-11T14:10:30.622Z,17.20
2022-09-11T14:13:05.098Z,14.45
2022-09-11T14:15:40.324Z,15.02
2022-09-11T14:18:13.920Z,13.48
2022-09-11T14:20:42.304Z,13.45
2022-09-11T14:23:18.315Z,13.18
2022-09-11T14:26:05.098Z,13.30
2022-09-11T14:28:36.595Z,13.52
2022-09-11T14:31:08.267Z,13.55
2022-09-11T14:33:34.905Z,14.52
2022-09-11T14:36:07.762Z,13.85
2022-09-11T14:38:35.258Z,12.90
2022-09-11T14:41:06.053Z,13.00
2022-09-11T14:43:34.638Z,14.82
2022-09-11T14:46:02.909Z,14.30
2022-09-11T14:48:31.389Z,13.65
2022-09-11T14:50:58.421Z,13.00
2022-09-11T14:53:33.803Z,12.93
2022-09-11T14:56:01.775Z,14.32
2022-09-11T14:58:29.530Z,15.20
2022-09-11T15:00:57.301Z,13.68
2022-09-11T15:03:25.498Z,13.48
2022-09-11T15:05:56.240Z,14.30
2022-09-11T15:08:23.870Z,14.70
2022-09-11T15:10:51.007Z,13.43
2022-09-11T15:13:17.651Z,15.32
2022-09-11T15:15:45.853Z,15.18
2022-09-11T15:18:12.470Z,14.98
2022-09-11T15:20:39.654Z,14.77
2022-09-11T15:23:06.517Z,15.73
2022-09-11T15:25:33.128Z,14.25
2022-09-11T15:27:59.774Z,14.60
2022-09-11T15:30:27.796Z,13.95
2022-09-11T15:32:54.947Z,14.20
2022-09-11T15:35:23.294Z,14.48
2022-09-11T15:37:50.757Z,13.02
2022-09-11T15:40:17.845Z,13.48
2022-09-11T15:42:44.632Z,14.38
2022-09-11T15:45:12.948Z,14.48
2022-09-11T15:47:40.227Z,14.25
2022-09-11T15:50:07.878Z,13.70
2022-09-11T15:52:36.395Z,13.95
2022-09-11T15:55:03.713Z,12.27
2022-09-11T15:57:31.287Z,13.20
2022-09-11T15:59:57.996Z,13.35
2022-09-11T16:02:24.712Z,12.65
2022-09-11T16:04:53.746Z,13.57
2022-09-11T16:07:21.239Z,12.25
2022-09-11T16:09:47.814Z,12.45
2022-09-11T16:12:15.720Z,12.32
2022-09-11T16:14:43.671Z,11.88
2022-09-11T16:17:10.457Z,12.13
2022-09-11T16:19:38.689Z,13.02
2022-09-11T16:22:07.030Z,12.98
2022-09-11T16:24:37.431Z,12.93
2022-09-11T16:27:07.556Z,10.88
2022-09-11T16:30:09.117Z,11.48
2022-09-11T16:32:28.462Z,13.65
2022-09-11T16:34:57.273Z,12.02
2022-09-11T16:37:24.130Z,12.77
2022-09-11T16:39:51.030Z,12.73
2022-09-11T16:42:21.790Z,12.40
2022-09-11T16:44:49.722Z,11.57
2022-09-11T16:47:17.025Z,13.13
2022-09-11T16:50:06.442Z,12.30
2022-09-11T16:52:30.215Z,12.30
2022-09-11T16:54:56.869Z,12.05
2022-09-11T16:57:23.566Z,12.77
2022-09-11T16:59:51.003Z,11.95
2022-09-11T17:02:17.651Z,11.18
2022-09-11T17:04:44.224Z,12.55
2022-09-11T17:07:10.818Z,12.23
2022-09-11T17:09:37.474Z,11.90
2022-09-11T17:12:04.189Z,11.60
2022-09-11T17:14:30.812Z,13.05
2022-09-11T17:16:57.422Z,12.27
2022-09-11T17:19:24.052Z,11.60
2022-09-11T17:21:50.905Z,12.20
2022-09-11T17:24:21.590Z,12.98
2022-09-11T17:26:50.649Z,12.82
2022-09-11T17:29:19.547Z,12.63
2022-09-11T17:31:46.422Z,12.55
2022-09-11T17:34:14.199Z,12.75
2022-09-11T17:36:40.937Z,11.77
2022-09-11T17:39:07.637Z,11.90
2022-09-11T17:41:34.143Z,11.27
2022-09-11T17:44:00.717Z,11.38
2022-09-11T17:46:28.248Z,11.13
2022-09-11T17:48:55.865Z,10.93
2022-09-11T17:51:26.165Z,11.75
2022-09-11T17:53:56.308Z,12.70
2022-09-11T17:56:25.915Z,12.57
2022-09-11T17:58:57.437Z,12.20
2022-09-11T18:01:25.807Z,11.70
2022-09-11T18:03:54.775Z,13.13
2022-09-11T18:06:30.368Z,12.52
2022-09-11T18:09:02.056Z,12.98
2022-09-11T18:11:30.373Z,13.05
2022-09-11T18:13:58.398Z,12.50
2022-09-11T18:16:25.202Z,13.77
2022-09-11T18:18:51.893Z,13.52
2022-09-11T18:21:18.431Z,13.13
2022-09-11T18:23:46.316Z,13.98
2022-09-11T18:26:25.813Z,13.95
2022-09-11T18:28:57.656Z,14.05
2022-09-11T18:31:24.433Z,13.55
2022-09-11T18:33:55.606Z,13.35
2022-09-11T18:36:23.558Z,13.45
2022-09-11T18:38:55.433Z,13.15
2022-09-11T18:41:23.433Z,13.70
2022-09-11T18:43:54.487Z,14.25
2022-09-11T18:46:21.849Z,13.85
2022-09-11T18:48:50.369Z,12.90
2022-09-11T18:51:17.883Z,13.52
2022-09-11T18:53:47.650Z,14.73
2022-09-11T18:56:14.323Z,14.20
2022-09-11T18:58:40.860Z,14.35
2022-09-11T19:01:10.559Z,14.50
2022-09-11T19:03:41.916Z,15.18
2022-09-11T19:06:11.769Z,15.95
2022-09-11T19:08:40.440Z,15.57
2022-09-11T19:11:13.361Z,16.23
2022-09-11T19:13:40.059Z,14.77
2022-09-11T19:16:07.196Z,14.18
2022-09-11T19:18:35.492Z,14.63
2022-09-11T19:21:10.234Z,14.90
2022-09-11T19:23:39.774Z,15.23
2022-09-11T19:26:13.027Z,16.80
2022-09-11T19:28:41.309Z,15.63
2022-09-11T19:31:10.037Z,17.38
2022-09-11T19:33:37.987Z,16.33
2022-09-11T19:36:10.767Z,16.92
2022-09-11T19:38:41.112Z,17.40
2022-09-11T19:41:09.572Z,17.10
2022-09-11T19:43:37.702Z,17.75
2022-09-11T19:46:05.378Z,18.90
2022-09-11T19:48:33.389Z,18.25
2022-09-11T19:51:03.194Z,19.17
2022-09-11T19:53:30.416Z,17.92
2022-09-11T19:55:58.005Z,19.20
2022-09-11T19:58:25.477Z,19.50
2022-09-11T20:00:52.331Z,19.25
2022-09-11T20:03:19.081Z,18.48
2022-09-11T20:05:46.091Z,20.45
2022-09-11T20:08:16.099Z,19.65
2022-09-11T20:10:45.438Z,19.73
2022-09-11T20:13:12.371Z,19.30
2022-09-11T20:15:40.170Z,18.55
2022-09-11T20:18:07.853Z,18.80
2022-09-11T20:20:36.050Z,18.73
2022-09-11T20:23:03.024Z,18.55
2022-09-11T20:25:29.687Z,18.35
2022-09-11T20:27:56.386Z,18.88
2022-09-11T20:30:25.096Z,18.90
2022-09-11T20:32:52.184Z,17.88
2022-09-11T20:35:18.944Z,18.58
2022-09-11T20:37:45.464Z,18.25
2022-09-11T20:40:12.748Z,18.70
2022-09-11T20:42:39.841Z,19.45
2022-09-11T20:45:06.828Z,18.95
2022-09-11T20:47:33.366Z,18.48
2022-09-11T20:50:00.643Z,18.20
2022-09-11T20:52:27.515Z,19.50
2022-09-11T20:54:54.467Z,18.40
2022-09-11T20:57:20.988Z,21.92
2022-09-11T20:59:47.980Z,20.27
2022-09-11T21:02:14.838Z,18.40
2022-09-11T21:04:41.609Z,20.05
2022-09-11T21:07:08.133Z,19.85
2022-09-11T21:09:35.480Z,20.35
2022-09-11T21:12:02.262Z,19.50
2022-09-11T21:14:28.850Z,20.00
2022-09-11T21:16:55.370Z,19.70
2022-09-11T21:19:21.876Z,20.23
2022-09-11T21:21:48.423Z,19.48
2022-09-11T21:24:14.983Z,21.30
2022-09-11T21:26:42.474Z,19.52
2022-09-11T21:29:12.285Z,18.45
2022-09-11T21:31:38.934Z,21.33
2022-09-11T21:34:05.692Z,20.77
2022-09-11T21:36:33.580Z,18.17
2022-09-11T21:39:00.188Z,19.75
2022-09-11T21:41:26.720Z,20.55
2022-09-11T21:43:53.239Z,20.52
2022-09-11T21:46:20.345Z,21.45
2022-09-11T21:48:46.977Z,20.55
2022-09-11T21:51:16.470Z,21.77
2022-09-11T21:53:45.692Z,20.33
2022-09-11T21:56:20.730Z,21.30
2022-09-11T21:58:48.732Z,22.90
2022-09-11T22:01:15.433Z,20.13
2022-09-11T22:03:42.067Z,21.77
2022-09-11T22:06:10.327Z,20.33
2022-09-11T22:08:38.422Z,20.50
2022-09-11T22:11:05.708Z,20.45
2022-09-11T22:13:32.991Z,20.48
2022-09-11T22:16:00.451Z,19.80
2022-09-11T22:18:31.596Z,20.15
2022-09-11T22:21:01.236Z,20.27
2022-09-11T22:23:29.533Z,20.13
2022-09-11T22:26:01.090Z,20.55
2022-09-11T22:28:28.317Z,21.70
2022-09-11T22:30:55.046Z,20.23
2022-09-11T22:33:22.112Z,21.25
2022-09-11T22:35:49.562Z,21.45
2022-09-11T22:38:16.332Z,21.17
2022-09-11T22:40:42.921Z,20.90
2022-09-11T22:43:09.704Z,19.27
2022-09-11T22:45:36.310Z,20.20
2022-09-11T22:48:03.018Z,20.50
2022-09-11T22:50:29.703Z,19.85
2022-09-11T22:52:56.229Z,21.38
2022-09-11T22:55:22.740Z,21.70
2022-09-11T22:57:49.649Z,23.88
2022-09-11T23:00:18.201Z,23.35
2022-09-11T23:02:44.716Z,21.67
2022-09-11T23:05:29.857Z,21.85
2022-09-11T23:07:56.431Z,24.08
2022-09-11T23:10:23.845Z,21.77
2022-09-11T23:12:52.116Z,23.83
2022-09-11T23:15:19.542Z,23.77
2022-09-11T23:17:46.134Z,22.95
2022-09-11T23:20:12.906Z,22.48
2022-09-11T23:22:39.484Z,23.77
2022-09-11T23:25:06.814Z,23.30
2022-09-11T23:27:33.382Z,23.10
2022-09-11T23:30:00.020Z,24.98
2022-09-11T23:32:26.666Z,21.98
2022-09-11T23:34:53.254Z,23.60
2022-09-11T23:37:19.814Z,21.50
2022-09-11T23:39:46.866Z,23.02
2022-09-11T23:42:13.463Z,24.40
2022-09-11T23:44:40.056Z,21.95
2022-09-11T23:47:06.619Z,23.08
2022-09-11T23:49:36.363Z,23.70
2022-09-11T23:52:04.430Z,25.10
2022-09-11T23:54:30.965Z,25.27
2022-09-11T23:56:57.617Z,26.23
2022-09-11T23:59:24.120Z,25.80
